createdAt,value
2023-03-12T00:04:41.693Z,100122.78
2023-03-12T00:09:45.749Z,100117.81
2023-03-12T00:14:49.883Z,100129.66
2023-03-12T00:19:53.338Z,100123.84
2023-03-12T00:24:57.723Z,100122.06
2023-03-12T00:30:02.045Z,100116.59
2023-03-12T00:35:07.092Z,100121.97
2023-03-12T00:40:11.492Z,100110.69
2023-03-12T00:45:16.093Z,100106.66
2023-03-12T00:50:18.988Z,100105.84
2023-03-12T00:55:21.834Z,100099.97
2023-03-12T01:00:26.376Z,100103.09
2023-03-12T01:05:29.862Z,100097.41
2023-03-12T01:10:32.921Z,100095.53
2023-03-12T01:15:37.252Z,100094.81
2023-03-12T01:20:41.230Z,100088.41
2023-03-12T01:25:44.204Z,100090.94
2023-03-12T01:30:48.676Z,100081.19
2023-03-12T01:35:52.020Z,100072.56
2023-03-12T01:40:54.906Z,100075.31
2023-03-12T01:46:22.589Z,100078.44
2023-03-12T01:51:28.193Z,100073.78
2023-03-12T01:56:34.646Z,100062.31
2023-03-12T02:01:39.627Z,100066.03
2023-03-12T02:06:49.330Z,100061.44
2023-03-12T02:11:52.451Z,100055.44
2023-03-12T02:16:57.841Z,100051.19
2023-03-12T02:22:00.992Z,100047.88
2023-03-12T02:27:06.804Z,100052.25
2023-03-12T02:32:17.112Z,100052.19
2023-03-12T02:37:20.939Z,100041.31
2023-03-12T02:42:25.656Z,100045.00
2023-03-12T02:47:28.827Z,100037.41
2023-03-12T02:52:35.561Z,100037.50
2023-03-12T02:57:40.424Z,100037.63
2023-03-12T03:02:47.211Z,100041.19
2023-03-12T03:07:50.402Z,100035.13
2023-03-12T03:12:54.650Z,100039.63
2023-03-12T03:17:58.374Z,100030.91
2023-03-12T03:23:01.491Z,100022.97
2023-03-12T03:28:06.059Z,100020.34
2023-03-12T03:33:08.838Z,100020.78
2023-03-12T03:38:11.729Z,100022.13
2023-03-12T03:43:16.172Z,100014.00
2023-03-12T03:48:19.762Z,100013.13
2023-03-12T03:53:22.665Z,100009.41
2023-03-12T03:58:27.147Z,100001.81
2023-03-12T04:03:30.730Z,100005.50
2023-03-12T04:08:35.490Z,100000.91
2023-03-12T04:13:40.425Z,100000.09
2023-03-12T04:18:44.567Z,99996.78
2023-03-12T04:23:48.003Z,99988.06
2023-03-12T04:28:52.613Z,99978.19
2023-03-12T04:33:55.722Z,99967.78
2023-03-12T04:39:00.310Z,99967.06
2023-03-12T04:44:11.536Z,99966.38
2023-03-12T04:49:15.890Z,99961.28
2023-03-12T04:54:20.981Z,99953.91
2023-03-12T04:59:25.716Z,99960.66
2023-03-12T05:04:31.874Z,99941.81
2023-03-12T05:09:36.179Z,99943.16
2023-03-12T05:14:40.641Z,99946.59
2023-03-12T05:19:44.623Z,99946.47
2023-03-12T05:24:47.679Z,99933.56
2023-03-12T05:29:52.017Z,99923.06
2023-03-12T05:34:56.543Z,99922.06
2023-03-12T05:40:00.644Z,99908.09
2023-03-12T05:45:06.120Z,99906.38
2023-03-12T05:50:11.498Z,99910.88
2023-03-12T05:55:14.718Z,99896.47
2023-03-12T06:00:20.993Z,99875.22
2023-03-12T06:05:31.697Z,99871.06
2023-03-12T06:10:35.311Z,99876.44
2023-03-12T06:15:39.554Z,99873.84
2023-03-12T06:20:43.792Z,99861.56
2023-03-12T06:25:47.184Z,99860.44
2023-03-12T06:30:54.024Z,99850.53
2023-03-12T06:35:57.690Z,99845.63
2023-03-12T06:41:02.195Z,99845.31
2023-03-12T06:46:08.109Z,99832.91
2023-03-12T06:51:12.370Z,99833.47
2023-03-12T06:56:15.501Z,99831.78
2023-03-12T07:01:19.713Z,99824.00
2023-03-12T07:06:23.996Z,99826.38
2023-03-12T07:11:26.766Z,99840.63
2023-03-12T07:16:31.421Z,99834.72
2023-03-12T07:21:34.324Z,99827.09
2023-03-12T07:26:37.253Z,99820.44
2023-03-12T07:31:41.489Z,99827.66
2023-03-12T07:36:44.432Z,99822.19
2023-03-12T07:41:47.253Z,99811.25
2023-03-12T07:46:51.753Z,99811.78
2023-03-12T07:51:55.131Z,99816.69
2023-03-12T07:56:58.068Z,99805.47
2023-03-12T08:02:02.501Z,99796.66
2023-03-12T08:07:08.006Z,99783.41
2023-03-12T08:12:12.301Z,99790.34
2023-03-12T08:17:16.586Z,99782.13
2023-03-12T08:22:19.412Z,99766.94
2023-03-12T08:27:22.238Z,99755.56
2023-03-12T08:32:26.697Z,99759.91
2023-03-12T08:37:30.303Z,99771.97
2023-03-12T08:42:33.244Z,99773.94
2023-03-12T08:47:37.437Z,99770.88
2023-03-12T08:52:40.517Z,99766.06
2023-03-12T08:57:43.382Z,99780.69
2023-03-12T09:02:47.924Z,99781.09
2023-03-12T09:07:50.700Z,99772.22
2023-03-12T09:12:53.443Z,99767.25
2023-03-12T09:17:57.817Z,99759.00
2023-03-12T09:23:00.594Z,99756.63
2023-03-12T09:28:03.452Z,99764.38
2023-03-12T09:33:07.940Z,99761.38
2023-03-12T09:38:14.739Z,99761.97
2023-03-12T09:43:26.146Z,99752.91
2023-03-12T09:48:34.618Z,99755.00
2023-03-12T09:53:46.956Z,99735.25
2023-03-12T09:58:54.528Z,99730.06
2023-03-12T10:04:24.431Z,99743.63
2023-03-12T10:09:40.769Z,99722.06
2023-03-12T10:14:54.502Z,99713.84
2023-03-12T10:20:18.576Z,99697.41
2023-03-12T10:25:28.156Z,99696.19
2023-03-12T10:30:33.117Z,99699.38
2023-03-12T10:35:37.552Z,99688.66
2023-03-12T10:40:41.960Z,99695.75
2023-03-12T10:45:53.361Z,99696.00
2023-03-12T10:51:06.115Z,99702.50
2023-03-12T10:56:10.778Z,99679.50
2023-03-12T11:01:21.326Z,99688.16
2023-03-12T11:06:28.379Z,99692.53
2023-03-12T11:11:38.540Z,99689.19
2023-03-12T11:16:41.482Z,99689.44
2023-03-12T11:21:56.844Z,99653.69
2023-03-12T11:27:06.542Z,99647.69
2023-03-12T11:32:17.927Z,99634.28
2023-03-12T11:37:31.729Z,99652.00
2023-03-12T11:42:52.058Z,99645.66
2023-03-12T11:48:04.547Z,99648.41
2023-03-12T11:53:31.389Z,99644.16
2023-03-12T11:58:51.065Z,99638.56
2023-03-12T12:04:09.841Z,99635.84
2023-03-12T12:09:26.499Z,99620.19
2023-03-12T12:14:49.640Z,99621.75
2023-03-12T12:20:09.210Z,99616.25
2023-03-12T12:25:30.072Z,99583.72
2023-03-12T12:30:49.364Z,99590.66
2023-03-12T12:35:52.389Z,99582.88
2023-03-12T12:41:02.075Z,99587.91
2023-03-12T12:46:07.524Z,99570.97
2023-03-12T12:51:11.639Z,99581.97
2023-03-12T12:56:23.899Z,99569.69
2023-03-12T13:01:28.100Z,99567.13
2023-03-12T13:06:58.513Z,99564.56
2023-03-12T13:12:08.549Z,99560.19
2023-03-12T13:17:24.239Z,99550.88
2023-03-12T13:22:59.345Z,99554.47
2023-03-12T13:28:30.317Z,99539.44
2023-03-12T13:33:45.126Z,99552.69
2023-03-12T13:38:56.853Z,99550.19
2023-03-12T13:44:01.425Z,99545.69
2023-03-12T13:49:10.985Z,99537.22
2023-03-12T13:54:19.597Z,99534.22
2023-03-12T13:59:25.786Z,99531.44
2023-03-12T14:04:35.130Z,99528.47
2023-03-12T14:09:45.438Z,99521.84
2023-03-12T14:15:22.047Z,99513.78
2023-03-12T14:20:25.808Z,99518.25
2023-03-12T14:25:35.161Z,99538.13
2023-03-12T14:30:49.642Z,99553.34
2023-03-12T14:35:57.230Z,99546.47
2023-03-12T14:41:05.725Z,99556.19
2023-03-12T14:46:16.710Z,99555.72
2023-03-12T14:51:24.924Z,99548.28
2023-03-12T14:56:30.696Z,99548.75
2023-03-12T15:01:39.402Z,99537.63
2023-03-12T15:06:46.946Z,99534.09
2023-03-12T15:11:55.562Z,99533.09
2023-03-12T15:17:00.740Z,99533.38
2023-03-12T15:22:05.140Z,99530.09
2023-03-12T15:27:31.483Z,99515.28
2023-03-12T15:32:35.684Z,99511.31
2023-03-12T15:37:40.918Z,99504.72
2023-03-12T15:42:47.086Z,99507.91
2023-03-12T15:47:53.521Z,99512.69
2023-03-12T15:53:02.196Z,99512.59
2023-03-12T15:58:26.404Z,99515.50
2023-03-12T16:03:30.517Z,99515.41
2023-03-12T16:08:39.174Z,99512.63
2023-03-12T16:13:43.599Z,99511.19
2023-03-12T16:18:47.780Z,99511.06
2023-03-12T16:23:50.546Z,99508.75
2023-03-12T16:28:53.295Z,99504.63
2023-03-12T16:33:58.081Z,99504.97
2023-03-12T16:39:00.817Z,99506.94
2023-03-12T16:44:04.294Z,99508.25
2023-03-12T16:49:12.748Z,99522.72
2023-03-12T16:54:15.518Z,99521.13
2023-03-12T16:59:25.869Z,99514.59
2023-03-12T17:04:30.075Z,99537.03
2023-03-12T17:09:32.909Z,99534.13
2023-03-12T17:14:35.837Z,99538.22
2023-03-12T17:19:39.964Z,99530.38
2023-03-12T17:24:42.780Z,99534.25
2023-03-12T17:29:45.487Z,99537.53
2023-03-12T17:34:55.825Z,99534.22
2023-03-12T17:40:01.486Z,99536.03
2023-03-12T17:45:05.396Z,99542.94
2023-03-12T17:50:10.965Z,99541.38
2023-03-12T17:55:13.811Z,99539.81
2023-03-12T18:00:17.657Z,99552.78
2023-03-12T18:05:21.788Z,99559.09
2023-03-12T18:10:24.526Z,99570.75
2023-03-12T18:15:27.305Z,99581.44
2023-03-12T18:20:38.514Z,99587.88
2023-03-12T18:25:42.777Z,99583.88
2023-03-12T18:30:46.702Z,99584.47
2023-03-12T18:35:53.186Z,99574.38
2023-03-12T18:41:04.539Z,99573.78
2023-03-12T18:46:08.522Z,99572.53
2023-03-12T18:51:12.692Z,99574.03
2023-03-12T18:56:15.651Z,99569.41
2023-03-12T19:01:18.538Z,99580.78
2023-03-12T19:06:22.717Z,99579.97
2023-03-12T19:11:26.391Z,99580.31
2023-03-12T19:16:29.210Z,99591.34
2023-03-12T19:21:33.440Z,99564.84
2023-03-12T19:26:36.350Z,99558.41
2023-03-12T19:31:39.186Z,99554.38
2023-03-12T19:36:43.342Z,99545.75
2023-03-12T19:41:46.204Z,99543.56
2023-03-12T19:46:49.012Z,99543.72
2023-03-12T19:51:53.111Z,99540.06
2023-03-12T19:56:55.871Z,99543.34
2023-03-12T20:02:00.764Z,99532.94
2023-03-12T20:07:04.925Z,99545.22
2023-03-12T20:12:08.041Z,99551.28
2023-03-12T20:17:12.087Z,99546.81
2023-03-12T20:22:16.407Z,99548.69
2023-03-12T20:27:19.307Z,99558.84
2023-03-12T20:32:22.131Z,99539.69
2023-03-12T20:37:26.254Z,99549.66
2023-03-12T20:42:29.047Z,99540.63
2023-03-12T20:47:34.573Z,99542.38
2023-03-12T20:52:38.925Z,99529.25
2023-03-12T20:57:41.665Z,99522.75
2023-03-12T21:02:44.524Z,99530.63
2023-03-12T21:07:48.713Z,99521.44
2023-03-12T21:12:51.492Z,99515.06
2023-03-12T21:17:54.275Z,99508.28
2023-03-12T21:22:58.695Z,99510.13
2023-03-12T21:28:01.866Z,99504.50
2023-03-12T21:33:04.777Z,99499.06
2023-03-12T21:38:08.960Z,99499.75
2023-03-12T21:43:11.714Z,99493.94
2023-03-12T21:48:14.562Z,99488.78
2023-03-12T21:53:23.711Z,99485.31
2023-03-12T21:58:28.647Z,99476.84
2023-03-12T22:03:31.467Z,99466.59
2023-03-12T22:08:36.186Z,99469.03
2023-03-12T22:13:39.177Z,99459.50
2023-03-12T22:18:43.653Z,99451.22
2023-03-12T22:23:50.941Z,99436.94
2023-03-12T22:28:55.567Z,99428.69
2023-03-12T22:33:58.876Z,99435.50
2023-03-12T22:39:03.060Z,99424.34
2023-03-12T22:44:07.458Z,99413.44
2023-03-12T22:49:10.226Z,99413.06
2023-03-12T22:54:14.306Z,99406.44
2023-03-12T22:59:17.069Z,99400.72
2023-03-12T23:04:19.886Z,99390.94
2023-03-12T23:09:24.087Z,99381.63
2023-03-12T23:14:26.874Z,99370.72
2023-03-12T23:19:33.005Z,99373.31
2023-03-12T23:24:37.207Z,99364.94
2023-03-12T23:29:40.025Z,99351.53
2023-03-12T23:34:42.796Z,99339.28
2023-03-12T23:39:54.481Z,99334.31
2023-03-12T23:44:57.904Z,99337.78
2023-03-12T23:50:00.698Z,99323.84
2023-03-12T23:55:05.353Z,99318.00
